Terminal Aerodrome Forecast
Issued by NWS La Crosse, WI

Home | Current Version | Previous Version | Text Only | Print | Product List | Glossary On
Versions: 1 2 3 4 5 6 7 8 9 10 11 12 13 14 15 16 17 18 19 20 21 22 23 24 25 26 27 28 29 30 31 32 33 34 35 36 37 38 39 40 41 42 43 44 45 46
000
FTUS43 KARX 202333
TAFRST
TAF
KRST 202333Z 2100/2124 15004KT P6SM SCT035 BKN150
     FM210400 15006KT P6SM VCSH BKN100
     FM210600 16006KT P6SM -SHRA VCTS BKN050CB
      TEMPO 2107/2110 3SM TSRA BR BKN020CB
     FM211300 16009KT 5SM BR VCTS BKN020CB
     FM211700 17010KT P6SM SCT060 BKN090=

USA.gov is the U.S. government's official web portal to all federal, state and local government web resources and services.